PWSweather.com
Personal Weather Stations
Station Observations
KTXPLANO60
Highlands Of Russell Park, Plano, TX 75025

Highlands Of Russell ParkPlano, TX 75025

Lat: 33.10431671, Lon: -96.75176239

Elevation: 761

Station Type: Davis Wireless VP2 Plus

http://www.planoweather.com

Latest ConditionsUpdated 6:00:01 PM CDT Wednesday, Oct 16, 2019
Currently Today's Max Today's Min Today's Average
Temperature 63.1°F17.3°C 65.7°F18.7°C 52.8°F11.6°C 60.3°F15.7°C
Dew Point 42.0°F5.6°C 51.1°F10.6°C 38.9°F3.8°C 42.1°F5.6°C
Winds 5.8 mph NNW9.3 kmh NNW 12.7 mph -20.4 kmh - - 7.0 mph 11.3 kmh
Wind Gusts 11.5 mph18.5 kmh 26.5 mph42.6 kmh - -
Humidity 46% 60% 40% 51%
Pressure 30.06 in1017.9 mb 30.17 in1021.7 mb 29.96 in1014.6 mb -
Hour Temp Dew Point Humidity Winds Wind Gusts Pressure Precip Precip Rate Daily Precip Total
06:00 PM 63.1°F17.3°C 42.0°F5.6°C 46% 5.8 mph NNW9.3 kmh NNW 11.5 mph18.5 kmh 30.06 in1017.9 mb - 0.00 in0.0 mm 0.00 in0.0 mm
05:50 PM 63.3°F17.4°C 42.2°F5.7°C 46% 6.9 mph NNW11.1 kmh NNW 9.2 mph14.8 kmh 30.06 in1017.9 mb - 0.00 in0.0 mm 0.00 in0.0 mm
05:40 PM 63.7°F17.6°C 42.5°F5.8°C 46% 6.9 mph N11.1 kmh N 11.5 mph18.5 kmh 30.06 in1017.9 mb - 0.00 in0.0 mm 0.00 in0.0 mm
05:30 PM 64.1°F17.8°C 42.9°F6.1°C 46% 6.9 mph NW11.1 kmh NW 9.2 mph14.8 kmh 30.07 in1018.3 mb - 0.00 in0.0 mm 0.00 in0.0 mm
05:20 PM 64.4°F18.0°C 42.6°F5.9°C 45% 4.6 mph N7.4 kmh N 8.1 mph13.0 kmh 30.07 in1018.3 mb - 0.00 in0.0 mm 0.00 in0.0 mm
05:10 PM 64.6°F18.1°C 42.8°F6.0°C 45% 5.8 mph N9.3 kmh N 8.1 mph13.0 kmh 30.07 in1018.3 mb - 0.00 in0.0 mm 0.00 in0.0 mm
05:00 PM 64.8°F18.2°C 42.9°F6.1°C 45% 3.5 mph NNW5.6 kmh NNW 5.8 mph9.3 kmh 30.08 in1018.6 mb - 0.00 in0.0 mm 0.00 in0.0 mm
04:50 PM 64.8°F18.2°C 42.9°F6.1°C 45% 4.6 mph NW7.4 kmh NW 5.8 mph9.3 kmh 30.09 in1019.0 mb - 0.00 in0.0 mm 0.00 in0.0 mm
04:40 PM 65.1°F18.4°C 43.2°F6.2°C 45% 5.8 mph N9.3 kmh N 10.4 mph16.7 kmh 30.08 in1018.6 mb - 0.00 in0.0 mm 0.00 in0.0 mm
04:30 PM 65.2°F18.4°C 42.7°F5.9°C 44% Calm Calm 2.3 mph3.7 kmh 30.08 in1018.6 mb - 0.00 in0.0 mm 0.00 in0.0 mm
04:20 PM 65.2°F18.4°C 43.3°F6.3°C 45% 6.9 mph NW11.1 kmh NW 11.5 mph18.5 kmh 30.08 in1018.6 mb - 0.00 in0.0 mm 0.00 in0.0 mm
04:10 PM 65.2°F18.4°C 43.3°F6.3°C 45% 6.9 mph NNW11.1 kmh NNW 10.4 mph16.7 kmh 30.09 in1019.0 mb - 0.00 in0.0 mm 0.00 in0.0 mm
04:00 PM 65.6°F18.7°C 42.5°F5.8°C 43% 2.3 mph N3.7 kmh N 8.1 mph13.0 kmh 30.09 in1019.0 mb - 0.00 in0.0 mm 0.00 in0.0 mm
03:50 PM 65.1°F18.4°C 42.0°F5.6°C 43% 3.5 mph N5.6 kmh N 3.5 mph5.6 kmh 30.09 in1019.0 mb - 0.00 in0.0 mm 0.00 in0.0 mm
03:40 PM 65.3°F18.5°C 42.2°F5.7°C 43% 5.8 mph 9.3 kmh 9.2 mph14.8 kmh 30.09 in1019.0 mb - 0.00 in0.0 mm 0.00 in0.0 mm
03:30 PM 65.5°F18.6°C 41.2°F5.1°C 41% 6.9 mph N11.1 kmh N 11.5 mph18.5 kmh 30.10 in1019.3 mb - 0.00 in0.0 mm 0.00 in0.0 mm
03:20 PM 65.3°F18.5°C 41.0°F5.0°C 41% 5.8 mph NNW9.3 kmh NNW 6.9 mph11.1 kmh 30.11 in1019.6 mb - 0.00 in0.0 mm 0.00 in0.0 mm
03:10 PM 65.7°F18.7°C 41.9°F5.5°C 42% 4.6 mph NE7.4 kmh NE 6.9 mph11.1 kmh 30.11 in1019.6 mb - 0.00 in0.0 mm 0.00 in0.0 mm
03:00 PM 65.3°F18.5°C 40.3°F4.6°C 40% 5.8 mph NNW9.3 kmh NNW 8.1 mph13.0 kmh 30.11 in1019.6 mb - 0.00 in0.0 mm 0.00 in0.0 mm
02:50 PM 65.2°F18.4°C 41.5°F5.3°C 42% 3.5 mph N5.6 kmh N 6.9 mph11.1 kmh 30.11 in1019.6 mb - 0.00 in0.0 mm 0.00 in0.0 mm
02:40 PM 64.7°F18.2°C 40.4°F4.7°C 41% 6.9 mph N11.1 kmh N 9.2 mph14.8 kmh 30.11 in1019.6 mb - 0.00 in0.0 mm 0.00 in0.0 mm
02:30 PM 64.6°F18.1°C 41.0°F5.0°C 42% 4.6 mph N7.4 kmh N 9.2 mph14.8 kmh 30.11 in1019.6 mb - 0.00 in0.0 mm 0.00 in0.0 mm
02:20 PM 65.0°F18.3°C 40.1°F4.5°C 40% 4.6 mph N7.4 kmh N 5.8 mph9.3 kmh 30.12 in1020.0 mb - 0.00 in0.0 mm 0.00 in0.0 mm
02:10 PM 65.0°F18.3°C 41.3°F5.2°C 42% 3.5 mph NW5.6 kmh NW 8.1 mph13.0 kmh 30.12 in1020.0 mb - 0.00 in0.0 mm 0.00 in0.0 mm
02:00 PM 65.2°F18.4°C 40.9°F4.9°C 41% 2.3 mph N3.7 kmh N 8.1 mph13.0 kmh 30.11 in1019.6 mb - 0.00 in0.0 mm 0.00 in0.0 mm
01:50 PM 65.3°F18.5°C 41.6°F5.3°C 42% 1.2 mph NNW1.9 kmh NNW 5.8 mph9.3 kmh 30.12 in1020.0 mb - 0.00 in0.0 mm 0.00 in0.0 mm
01:40 PM 64.9°F18.3°C 40.0°F4.4°C 40% 1.2 mph NNE1.9 kmh NNE -- 30.13 in1020.3 mb - 0.00 in0.0 mm 0.00 in0.0 mm
01:30 PM 64.0°F17.8°C 40.5°F4.7°C 42% 4.6 mph N7.4 kmh N 5.8 mph9.3 kmh 30.13 in1020.3 mb - 0.00 in0.0 mm 0.00 in0.0 mm
01:20 PM 63.4°F17.4°C 40.5°F4.7°C 43% 8.1 mph N13.0 kmh N 11.5 mph18.5 kmh 30.13 in1020.3 mb - 0.00 in0.0 mm 0.00 in0.0 mm
01:10 PM 63.2°F17.3°C 40.3°F4.6°C 43% 6.9 mph NNE11.1 kmh NNE 11.5 mph18.5 kmh 30.13 in1020.3 mb - 0.00 in0.0 mm 0.00 in0.0 mm
01:00 PM 63.5°F17.5°C 40.5°F4.7°C 43% 6.9 mph N11.1 kmh N 11.5 mph18.5 kmh 30.13 in1020.3 mb - 0.00 in0.0 mm 0.00 in0.0 mm
12:50 PM 62.0°F16.7°C 39.8°F4.3°C 44% 6.9 mph NNE11.1 kmh NNE 9.2 mph14.8 kmh 30.14 in1020.7 mb - 0.00 in0.0 mm 0.00 in0.0 mm
12:40 PM 62.3°F16.8°C 40.7°F4.8°C 45% 6.9 mph NNE11.1 kmh NNE 8.1 mph13.0 kmh 30.14 in1020.7 mb - 0.00 in0.0 mm 0.00 in0.0 mm
12:30 PM 62.3°F16.8°C 41.8°F5.4°C 47% 5.8 mph NNW9.3 kmh NNW 6.9 mph11.1 kmh 30.14 in1020.7 mb - 0.00 in0.0 mm 0.00 in0.0 mm
12:20 PM 60.9°F16.1°C 41.1°F5.1°C 48% 3.5 mph N5.6 kmh N 9.2 mph14.8 kmh 30.14 in1020.7 mb - 0.00 in0.0 mm 0.00 in0.0 mm
12:10 PM 60.8°F16.0°C 39.9°F4.4°C 46% 8.1 mph NNE13.0 kmh NNE 10.4 mph16.7 kmh 30.15 in1021.0 mb - 0.00 in0.0 mm 0.00 in0.0 mm
12:00 PM 60.3°F15.7°C 41.0°F5.0°C 49% 4.6 mph N7.4 kmh N 8.1 mph13.0 kmh 30.15 in1021.0 mb - 0.00 in0.0 mm 0.00 in0.0 mm
11:50 AM 60.6°F15.9°C 41.3°F5.2°C 49% 4.6 mph N7.4 kmh N 9.2 mph14.8 kmh 30.15 in1021.0 mb - 0.00 in0.0 mm 0.00 in0.0 mm
11:40 AM 60.2°F15.7°C 41.0°F5.0°C 49% 6.9 mph N11.1 kmh N 11.5 mph18.5 kmh 30.16 in1021.3 mb - 0.00 in0.0 mm 0.00 in0.0 mm
11:30 AM 59.5°F15.3°C 40.8°F4.9°C 50% 4.6 mph N7.4 kmh N 10.4 mph16.7 kmh 30.15 in1021.0 mb - 0.00 in0.0 mm 0.00 in0.0 mm
11:20 AM 59.0°F15.0°C 41.4°F5.2°C 52% 6.9 mph N11.1 kmh N 11.5 mph18.5 kmh 30.16 in1021.3 mb - 0.00 in0.0 mm 0.00 in0.0 mm
11:10 AM 58.1°F14.5°C 41.1°F5.1°C 53% 4.6 mph NNW7.4 kmh NNW 8.1 mph13.0 kmh 30.16 in1021.3 mb - 0.00 in0.0 mm 0.00 in0.0 mm
11:00 AM 57.6°F14.2°C 40.1°F4.5°C 52% 6.9 mph NNE11.1 kmh NNE 11.5 mph18.5 kmh 30.15 in1021.0 mb - 0.00 in0.0 mm 0.00 in0.0 mm
10:50 AM 56.8°F13.8°C 40.3°F4.6°C 54% 4.6 mph NNE7.4 kmh NNE 5.8 mph9.3 kmh 30.15 in1021.0 mb - 0.00 in0.0 mm 0.00 in0.0 mm
10:40 AM 56.7°F13.7°C 40.2°F4.6°C 54% 6.9 mph NNE11.1 kmh NNE 10.4 mph16.7 kmh 30.17 in1021.7 mb - 0.00 in0.0 mm 0.00 in0.0 mm
10:30 AM 55.5°F13.1°C 39.6°F4.2°C 55% 8.1 mph N13.0 kmh N 10.4 mph16.7 kmh 30.16 in1021.3 mb - 0.00 in0.0 mm 0.00 in0.0 mm
10:20 AM 55.7°F13.2°C 39.3°F4.1°C 54% 6.9 mph N11.1 kmh N 9.2 mph14.8 kmh 30.16 in1021.3 mb - 0.00 in0.0 mm 0.00 in0.0 mm
10:10 AM 55.4°F13.0°C 40.0°F4.4°C 56% 6.9 mph NE11.1 kmh NE 13.8 mph22.2 kmh 30.15 in1021.0 mb - 0.00 in0.0 mm 0.00 in0.0 mm
10:00 AM 54.3°F12.4°C 39.4°F4.1°C 57% 5.8 mph NNE9.3 kmh NNE 9.2 mph14.8 kmh 30.14 in1020.7 mb - 0.00 in0.0 mm 0.00 in0.0 mm
09:50 AM 54.4°F12.4°C 39.5°F4.2°C 57% 6.9 mph NNE11.1 kmh NNE 9.2 mph14.8 kmh 30.14 in1020.7 mb - 0.00 in0.0 mm 0.00 in0.0 mm
09:40 AM 53.6°F12.0°C 39.2°F4.0°C 58% 8.1 mph N13.0 kmh N 16.1 mph25.9 kmh 30.14 in1020.7 mb - 0.00 in0.0 mm 0.00 in0.0 mm
09:30 AM 53.5°F11.9°C 39.1°F3.9°C 58% 6.9 mph N11.1 kmh N 12.7 mph20.4 kmh 30.14 in1020.7 mb - 0.00 in0.0 mm 0.00 in0.0 mm
09:20 AM 53.3°F11.8°C 38.9°F3.8°C 58% 8.1 mph N13.0 kmh N 10.4 mph16.7 kmh 30.13 in1020.3 mb - 0.00 in0.0 mm 0.00 in0.0 mm
09:10 AM 53.0°F11.7°C 39.0°F3.9°C 59% 8.1 mph N13.0 kmh N 11.5 mph18.5 kmh 30.12 in1020.0 mb - 0.00 in0.0 mm 0.00 in0.0 mm
09:00 AM 52.9°F11.6°C 39.4°F4.1°C 60% 6.9 mph N11.1 kmh N 11.5 mph18.5 kmh 30.11 in1019.6 mb - 0.00 in0.0 mm 0.00 in0.0 mm
08:50 AM 52.8°F11.6°C 39.3°F4.1°C 60% 6.9 mph N11.1 kmh N 9.2 mph14.8 kmh 30.11 in1019.6 mb - 0.00 in0.0 mm 0.00 in0.0 mm
08:40 AM 52.8°F11.6°C 38.9°F3.8°C 59% 8.1 mph N13.0 kmh N 11.5 mph18.5 kmh 30.11 in1019.6 mb - 0.00 in0.0 mm 0.00 in0.0 mm
08:30 AM 52.9°F11.6°C 39.0°F3.9°C 59% 5.8 mph N9.3 kmh N 11.5 mph18.5 kmh 30.10 in1019.3 mb - 0.00 in0.0 mm 0.00 in0.0 mm
08:20 AM 53.0°F11.7°C 39.0°F3.9°C 59% 4.6 mph NNW7.4 kmh NNW 8.1 mph13.0 kmh 30.09 in1019.0 mb - 0.00 in0.0 mm 0.00 in0.0 mm
08:10 AM 53.2°F11.8°C 39.3°F4.1°C 59% 5.8 mph NNW9.3 kmh NNW 6.9 mph11.1 kmh 30.09 in1019.0 mb - 0.00 in0.0 mm 0.00 in0.0 mm
08:00 AM 53.4°F11.9°C 39.4°F4.1°C 59% 6.9 mph NNW11.1 kmh NNW 11.5 mph18.5 kmh 30.09 in1019.0 mb - 0.00 in0.0 mm 0.00 in0.0 mm
07:50 AM 53.4°F11.9°C 39.0°F3.9°C 58% 9.2 mph N14.8 kmh N 16.1 mph25.9 kmh 30.09 in1019.0 mb - 0.00 in0.0 mm 0.00 in0.0 mm
07:40 AM 53.5°F11.9°C 39.1°F3.9°C 58% 6.9 mph N11.1 kmh N 11.5 mph18.5 kmh 30.09 in1019.0 mb - 0.00 in0.0 mm 0.00 in0.0 mm
07:30 AM 53.5°F11.9°C 39.1°F3.9°C 58% 4.6 mph N7.4 kmh N 10.4 mph16.7 kmh 30.08 in1018.6 mb - 0.00 in0.0 mm 0.00 in0.0 mm
07:20 AM 53.7°F12.1°C 39.3°F4.1°C 58% 3.5 mph N5.6 kmh N 6.9 mph11.1 kmh 30.07 in1018.3 mb - 0.00 in0.0 mm 0.00 in0.0 mm
07:10 AM 53.9°F12.2°C 39.5°F4.2°C 58% 6.9 mph N11.1 kmh N 8.1 mph13.0 kmh 30.06 in1017.9 mb - 0.00 in0.0 mm 0.00 in0.0 mm
07:00 AM 54.2°F12.3°C 39.3°F4.1°C 57% 5.8 mph N9.3 kmh N 6.9 mph11.1 kmh 30.06 in1017.9 mb - 0.00 in0.0 mm 0.00 in0.0 mm
06:50 AM 54.5°F12.5°C 39.6°F4.2°C 57% 6.9 mph N11.1 kmh N 10.4 mph16.7 kmh 30.06 in1017.9 mb - 0.00 in0.0 mm 0.00 in0.0 mm
06:40 AM 54.9°F12.7°C 39.4°F4.1°C 56% 6.9 mph N11.1 kmh N 11.5 mph18.5 kmh 30.06 in1017.9 mb - 0.00 in0.0 mm 0.00 in0.0 mm
06:30 AM 55.3°F12.9°C 39.4°F4.1°C 55% 5.8 mph N9.3 kmh N 10.4 mph16.7 kmh 30.06 in1017.9 mb - 0.00 in0.0 mm 0.00 in0.0 mm
06:20 AM 55.5°F13.1°C 39.6°F4.2°C 55% 4.6 mph N7.4 kmh N 6.9 mph11.1 kmh 30.06 in1017.9 mb - 0.00 in0.0 mm 0.00 in0.0 mm
06:10 AM 55.8°F13.2°C 39.4°F4.1°C 54% 6.9 mph N11.1 kmh N 10.4 mph16.7 kmh 30.06 in1017.9 mb - 0.00 in0.0 mm 0.00 in0.0 mm
06:00 AM 56.0°F13.3°C 39.6°F4.2°C 54% 8.1 mph N13.0 kmh N 12.7 mph20.4 kmh 30.05 in1017.6 mb - 0.00 in0.0 mm 0.00 in0.0 mm
05:50 AM 56.3°F13.5°C 39.9°F4.4°C 54% 6.9 mph NNE11.1 kmh NNE 10.4 mph16.7 kmh 30.05 in1017.6 mb - 0.00 in0.0 mm 0.00 in0.0 mm
05:40 AM 56.6°F13.7°C 40.2°F4.6°C 54% 6.9 mph N11.1 kmh N 10.4 mph16.7 kmh 30.05 in1017.6 mb - 0.00 in0.0 mm 0.00 in0.0 mm
05:30 AM 57.0°F13.9°C 40.1°F4.5°C 53% 9.2 mph N14.8 kmh N 15.0 mph24.1 kmh 30.04 in1017.3 mb - 0.00 in0.0 mm 0.00 in0.0 mm
05:20 AM 57.4°F14.1°C 40.4°F4.7°C 53% 8.1 mph NNE13.0 kmh NNE 11.5 mph18.5 kmh 30.02 in1016.6 mb - 0.00 in0.0 mm 0.00 in0.0 mm
05:10 AM 57.6°F14.2°C 40.6°F4.8°C 53% 8.1 mph N13.0 kmh N 11.5 mph18.5 kmh 30.02 in1016.6 mb - 0.00 in0.0 mm 0.00 in0.0 mm
05:00 AM 58.0°F14.4°C 41.0°F5.0°C 53% 9.2 mph N14.8 kmh N 16.1 mph25.9 kmh 30.02 in1016.6 mb - 0.00 in0.0 mm 0.00 in0.0 mm
04:50 AM 58.4°F14.7°C 41.3°F5.2°C 53% 8.1 mph N13.0 kmh N 10.4 mph16.7 kmh 30.01 in1016.3 mb - 0.00 in0.0 mm 0.00 in0.0 mm
04:40 AM 58.9°F14.9°C 42.3°F5.7°C 54% 6.9 mph N11.1 kmh N 12.7 mph20.4 kmh 30.01 in1016.3 mb - 0.00 in0.0 mm 0.00 in0.0 mm
04:30 AM 59.2°F15.1°C 42.6°F5.9°C 54% 8.1 mph N13.0 kmh N 11.5 mph18.5 kmh 30.01 in1016.3 mb - 0.00 in0.0 mm 0.00 in0.0 mm
04:20 AM 59.5°F15.3°C 42.3°F5.7°C 53% 9.2 mph N14.8 kmh N 15.0 mph24.1 kmh 30.01 in1016.3 mb - 0.00 in0.0 mm 0.00 in0.0 mm
04:10 AM 59.7°F15.4°C 43.0°F6.1°C 54% 6.9 mph N11.1 kmh N 11.5 mph18.5 kmh 30.01 in1016.3 mb - 0.00 in0.0 mm 0.00 in0.0 mm
04:00 AM 60.0°F15.6°C 43.3°F6.3°C 54% 9.2 mph N14.8 kmh N 12.7 mph20.4 kmh 30.00 in1015.9 mb - 0.00 in0.0 mm 0.00 in0.0 mm
03:50 AM 60.2°F15.7°C 43.5°F6.4°C 54% 8.1 mph N13.0 kmh N 13.8 mph22.2 kmh 30.00 in1015.9 mb - 0.00 in0.0 mm 0.00 in0.0 mm
03:40 AM 60.6°F15.9°C 43.9°F6.6°C 54% 8.1 mph N13.0 kmh N 11.5 mph18.5 kmh 30.01 in1016.3 mb - 0.00 in0.0 mm 0.00 in0.0 mm
03:30 AM 60.8°F16.0°C 44.5°F6.9°C 55% 10.4 mph N16.7 kmh N 18.4 mph29.6 kmh 30.00 in1015.9 mb - 0.00 in0.0 mm 0.00 in0.0 mm
03:20 AM 61.1°F16.2°C 44.8°F7.1°C 55% 9.2 mph N14.8 kmh N 13.8 mph22.2 kmh 30.00 in1015.9 mb - 0.00 in0.0 mm 0.00 in0.0 mm
03:10 AM 61.4°F16.3°C 46.0°F7.8°C 57% 8.1 mph N13.0 kmh N 11.5 mph18.5 kmh 30.00 in1015.9 mb - 0.00 in0.0 mm 0.00 in0.0 mm
03:00 AM 61.6°F16.4°C 46.2°F7.9°C 57% 11.5 mph N18.5 kmh N 16.1 mph25.9 kmh 30.00 in1015.9 mb - 0.00 in0.0 mm 0.00 in0.0 mm
02:50 AM 61.8°F16.6°C 46.9°F8.3°C 58% 10.4 mph N16.7 kmh N 15.0 mph24.1 kmh 30.00 in1015.9 mb - 0.00 in0.0 mm 0.00 in0.0 mm
02:40 AM 62.1°F16.7°C 46.7°F8.2°C 57% 6.9 mph NNE11.1 kmh NNE 11.5 mph18.5 kmh 30.00 in1015.9 mb - 0.00 in0.0 mm 0.00 in0.0 mm
02:30 AM 62.6°F17.0°C 46.7°F8.2°C 56% 8.1 mph N13.0 kmh N 12.7 mph20.4 kmh 30.00 in1015.9 mb - 0.00 in0.0 mm 0.00 in0.0 mm
02:20 AM 62.9°F17.2°C 46.5°F8.1°C 55% 11.5 mph N18.5 kmh N 15.0 mph24.1 kmh 30.00 in1015.9 mb - 0.00 in0.0 mm 0.00 in0.0 mm
02:10 AM 63.2°F17.3°C 46.8°F8.2°C 55% 12.7 mph N20.4 kmh N 26.5 mph42.6 kmh 30.00 in1015.9 mb - 0.00 in0.0 mm 0.00 in0.0 mm
02:00 AM 63.6°F17.6°C 47.1°F8.4°C 55% 11.5 mph N18.5 kmh N 15.0 mph24.1 kmh 29.99 in1015.6 mb - 0.00 in0.0 mm 0.00 in0.0 mm
01:50 AM 64.0°F17.8°C 47.5°F8.6°C 55% 12.7 mph N20.4 kmh N 17.3 mph27.8 kmh 29.99 in1015.6 mb - 0.00 in0.0 mm 0.00 in0.0 mm
01:40 AM 64.3°F17.9°C 47.3°F8.5°C 54% 10.4 mph N16.7 kmh N 16.1 mph25.9 kmh 29.99 in1015.6 mb - 0.00 in0.0 mm 0.00 in0.0 mm
01:30 AM 64.7°F18.2°C 47.7°F8.7°C 54% 11.5 mph N18.5 kmh N 18.4 mph29.6 kmh 29.99 in1015.6 mb - 0.00 in0.0 mm 0.00 in0.0 mm
01:20 AM 64.8°F18.2°C 47.8°F8.8°C 54% 12.7 mph NNE20.4 kmh NNE 19.6 mph31.5 kmh 29.99 in1015.6 mb - 0.00 in0.0 mm 0.00 in0.0 mm
01:10 AM 64.8°F18.2°C 48.2°F9.0°C 55% 11.5 mph N18.5 kmh N 13.8 mph22.2 kmh 29.99 in1015.6 mb - 0.00 in0.0 mm 0.00 in0.0 mm
01:00 AM 64.9°F18.3°C 48.8°F9.3°C 56% 8.1 mph N13.0 kmh N 16.1 mph25.9 kmh 29.98 in1015.2 mb - 0.00 in0.0 mm 0.00 in0.0 mm
12:50 AM 64.9°F18.3°C 48.8°F9.3°C 56% 10.4 mph NNE16.7 kmh NNE 13.8 mph22.2 kmh 29.98 in1015.2 mb - 0.00 in0.0 mm 0.00 in0.0 mm
12:40 AM 65.0°F18.3°C 49.4°F9.7°C 57% 6.9 mph N11.1 kmh N 9.2 mph14.8 kmh 29.99 in1015.6 mb - 0.00 in0.0 mm 0.00 in0.0 mm
12:30 AM 65.0°F18.3°C 49.4°F9.7°C 57% 10.4 mph NNE16.7 kmh NNE 20.7 mph33.3 kmh 29.98 in1015.2 mb - 0.00 in0.0 mm 0.00 in0.0 mm
12:10 AM 65.2°F18.4°C 50.0°F10.0°C 58% 10.4 mph N16.7 kmh N 18.4 mph29.6 kmh 29.97 in1014.9 mb - 0.00 in0.0 mm 0.00 in0.0 mm
12:00 AM 65.3°F18.5°C 51.1°F10.6°C 60% 12.7 mph N20.4 kmh N 17.3 mph27.8 kmh 29.96 in1014.6 mb - 0.00 in0.0 mm 0.00 in0.0 mm